Time;durP1;ratioP1;P1;durP2;ratioP2;P2;SDS_P1;SDS_P2;PMS_P1;PMS_P2;Temp;Humidity;BMP_temperature;BMP_pressure;BME280_temperature;BME280_humidity;BME280_pressure;Samples;Min_cycle;Max_cycle;Signal;HPM_P1;HPM_P2
2023/02/17 00:01:21;;;;;;;31.63;21.23;;;8.00;99.90;;;;;;5017603;28;20448;-79
2023/02/17 00:03:48;;;;;;;35.30;22.40;;;7.80;99.90;;;;;;5016940;28;20312;-79
2023/02/17 00:06:17;;;;;;;31.20;21.53;;;8.20;1.00;;;;;;5017648;28;20221;-80
2023/02/17 00:08:44;;;;;;;32.33;22.02;;;8.00;1.00;;;;;;5018630;28;20452;-79
2023/02/17 00:11:11;;;;;;;35.70;22.33;;;7.70;1.00;;;;;;5018130;28;20700;-78
2023/02/17 00:13:38;;;;;;;33.83;22.98;;;8.10;48.60;;;;;;5018521;28;20449;-79
2023/02/17 00:16:11;;;;;;;39.03;25.55;;;7.90;71.90;;;;;;5018162;28;20210;-78
2023/02/17 00:18:38;;;;;;;36.08;23.40;;;7.70;1.00;;;;;;5017992;28;20192;-79
2023/02/17 00:21:12;;;;;;;35.50;24.17;;;7.80;99.90;;;;;;5018473;28;20252;-78
2023/02/17 00:23:39;;;;;;;36.53;21.80;;;;;;;;;;5017375;28;20202;-80
2023/02/17 00:26:07;;;;;;;44.85;26.02;;;7.80;99.90;;;;;;5017906;28;20451;-78
2023/02/17 00:28:34;;;;;;;41.65;25.88;;;7.20;99.90;;;;;;5017810;28;20207;-78
2023/02/17 00:31:06;;;;;;;37.00;24.00;;;7.50;99.90;;;;;;5024438;28;20294;-78
2023/02/17 00:33:34;;;;;;;42.22;27.02;;;7.40;99.90;;;;;;5035823;28;20185;-79
2023/02/17 00:36:04;;;;;;;41.38;26.70;;;7.50;99.90;;;;;;5035154;28;20269;-78
2023/02/17 00:38:31;;;;;;;45.25;29.35;;;7.20;99.90;;;;;;5026092;28;20194;-79
2023/02/17 00:40:58;;;;;;;49.22;27.50;;;;;;;;;;5018597;28;20242;-80
2023/02/17 00:43:25;;;;;;;40.38;26.33;;;7.40;99.90;;;;;;5017694;28;20588;-80
2023/02/17 00:45:52;;;;;;;37.22;25.45;;;7.70;99.90;;;;;;5018177;28;20247;-80
2023/02/17 00:48:18;;;;;;;37.92;25.30;;;6.60;99.90;;;;;;5018427;28;20238;-80
2023/02/17 00:50:47;;;;;;;42.47;26.05;;;7.10;99.90;;;;;;5018207;28;20226;-79
2023/02/17 00:53:14;;;;;;;36.05;24.90;;;7.00;99.90;;;;;;5017864;28;20211;-80
2023/02/17 00:55:41;;;;;;;39.53;27.35;;;;;;;;;;5017233;28;20201;-80
2023/02/17 00:58:08;;;;;;;37.40;25.00;;;;;;;;;;5018786;28;20201;-79
2023/02/17 01:00:35;;;;;;;43.42;26.67;;;7.60;1.00;;;;;;5026552;28;20240;-79
2023/02/17 01:03:02;;;;;;;38.25;25.20;;;7.40;1.00;;;;;;5017460;28;20300;-79
2023/02/17 01:05:29;;;;;;;45.17;28.60;;;;;;;;;;5019189;28;20222;-80
2023/02/17 01:07:57;;;;;;;46.97;27.17;;;7.30;99.90;;;;;;5019881;28;20643;-80
2023/02/17 01:10:24;;;;;;;40.33;28.45;;;6.60;1.00;;;;;;5019609;28;20210;-80
2023/02/17 01:12:51;;;;;;;51.95;28.30;;;7.10;1.00;;;;;;5020357;28;20571;-79
2023/02/17 01:15:18;;;;;;;46.15;29.00;;;7.10;1.00;;;;;;5017251;28;20686;-79
2023/02/17 01:17:44;;;;;;;43.42;28.15;;;7.00;1.00;;;;;;5018235;28;20668;-79
2023/02/17 01:20:12;;;;;;;45.35;29.38;;;7.50;1.00;;;;;;5020772;28;20248;-79
2023/02/17 01:22:39;;;;;;;40.80;26.52;;;7.00;1.00;;;;;;5018296;28;20236;-79
2023/02/17 01:25:08;;;;;;;41.40;27.02;;;6.80;99.90;;;;;;5016543;28;20225;-79
2023/02/17 01:27:35;;;;;;;41.10;28.05;;;7.30;99.90;;;;;;5015621;28;20344;-79
2023/02/17 01:30:02;;;;;;;43.22;28.42;;;7.00;1.00;;;;;;5015238;28;20297;-78
2023/02/17 01:32:29;;;;;;;41.35;26.27;;;7.50;1.00;;;;;;5016824;28;20222;-78
2023/02/17 01:34:56;;;;;;;39.80;26.67;;;6.60;99.90;;;;;;5016241;28;20206;-79
2023/02/17 01:37:23;;;;;;;42.80;26.90;;;7.40;1.00;;;;;;5018396;28;20473;-78
2023/02/17 01:39:49;;;;;;;38.55;26.10;;;7.30;1.00;;;;;;5025914;28;20244;-78
2023/02/17 01:42:19;;;;;;;40.97;25.50;;;7.70;1.00;;;;;;5025603;28;20240;-78
2023/02/17 01:45:23;;;;;;;39.13;26.48;;;7.30;99.90;;;;;;5020601;28;20334;-78
2023/02/17 01:47:56;;;;;;;42.35;25.67;;;7.50;1.00;;;;;;5018830;28;20210;-79
2023/02/17 01:50:27;;;;;;;44.10;26.70;;;7.40;1.00;;;;;;5016841;28;20282;-78
2023/02/17 01:52:55;;;;;;;43.05;24.80;;;7.10;1.00;;;;;;5015257;28;20221;-79
2023/02/17 01:55:25;;;;;;;38.85;26.60;;;7.50;1.00;;;;;;5018964;28;20202;-79
2023/02/17 01:57:56;;;;;;;38.13;24.90;;;7.70;99.90;;;;;;5020506;28;20232;-79
2023/02/17 02:00:26;;;;;;;47.85;25.80;;;7.70;1.00;;;;;;5020205;28;20504;-77
2023/02/17 02:02:52;;;;;;;39.55;25.35;;;7.60;1.00;;;;;;5017341;28;20197;-79
2023/02/17 02:05:21;;;;;;;38.80;25.02;;;7.60;1.00;;;;;;5017887;28;20231;-78
2023/02/17 02:07:49;;;;;;;47.00;26.55;;;7.70;1.00;;;;;;5017116;28;20212;-78
2023/02/17 02:10:18;;;;;;;39.87;26.40;;;7.30;99.90;;;;;;5016932;28;20643;-78
2023/02/17 02:12:44;;;;;;;38.58;25.77;;;7.20;1.00;;;;;;5016591;28;20940;-78
2023/02/17 02:15:15;;;;;;;40.65;24.65;;;7.00;1.00;;;;;;5016522;28;20301;-79
2023/02/17 02:17:53;;;;;;;44.05;25.58;;;6.90;1.00;;;;;;5016380;28;20195;-79
2023/02/17 02:20:41;;;;;;;34.30;23.85;;;7.10;1.00;;;;;;5015789;28;20188;-78
2023/02/17 02:23:29;;;;;;;40.53;25.35;;;6.80;1.00;;;;;;5016415;28;20621;-78
2023/02/17 02:26:18;;;;;;;41.45;27.15;;;7.50;1.00;;;;;;5021328;28;20215;-78
2023/02/17 02:29:04;;;;;;;45.40;27.00;;;7.10;1.00;;;;;;5023183;28;20216;-79
2023/02/17 02:31:45;;;;;;;43.80;26.13;;;6.60;1.00;;;;;;5022532;28;20229;-78
2023/02/17 02:34:20;;;;;;;43.88;27.23;;;7.10;1.00;;;;;;5023208;28;20196;-78
2023/02/17 02:36:54;;;;;;;44.20;27.45;;;6.90;1.00;;;;;;5020304;28;20190;-78
2023/02/17 02:39:25;;;;;;;43.97;26.67;;;7.00;1.00;;;;;;5018200;28;20229;-78
2023/02/17 02:41:55;;;;;;;50.92;29.25;;;8.10;1.00;;;;;;5052375;22;20228;-84
2023/02/17 02:44:22;;;;;;;42.22;27.48;;;7.20;1.00;;;;;;5039574;28;20185;-84
2023/02/17 02:46:57;;;;;;;56.97;32.63;;;7.00;1.00;;;;;;5039922;28;20205;-85
2023/02/17 02:49:26;;;;;;;49.92;29.02;;;6.80;1.00;;;;;;5040738;28;20189;-85
2023/02/17 02:51:58;;;;;;;47.20;29.10;;;6.70;1.00;;;;;;5054655;28;20225;-87
2023/02/17 02:54:41;;;;;;;48.28;29.52;;;7.30;9.80;;;;;;5043509;28;20251;-83
2023/02/17 02:57:31;;;;;;;46.60;28.38;;;6.80;1.00;;;;;;5040625;28;20231;-83
2023/02/17 03:00:08;;;;;;;45.80;29.30;;;6.80;1.00;;;;;;5038064;28;20196;-84
2023/02/17 03:02:44;;;;;;;54.08;30.42;;;7.20;36.50;;;;;;5035196;28;20233;-84
2023/02/17 03:05:15;;;;;;;54.53;32.13;;;7.00;46.80;;;;;;5034982;28;20213;-84
2023/02/17 03:07:49;;;;;;;48.25;29.75;;;6.90;1.00;;;;;;5035963;28;20205;-84
2023/02/17 03:10:16;;;;;;;56.28;32.97;;;7.00;90.30;;;;;;5038873;28;20193;-85
2023/02/17 03:12:43;;;;;;;55.22;29.17;;;7.00;61.40;;;;;;5043519;28;20321;-85
2023/02/17 03:15:16;;;;;;;56.05;30.05;;;6.60;99.90;;;;;;5043389;28;20206;-85
2023/02/17 03:17:43;;;;;;;52.13;31.35;;;7.00;47.30;;;;;;5041707;28;20194;-85
2023/02/17 03:20:12;;;;;;;52.90;31.65;;;7.30;99.90;;;;;;5042625;28;20320;-85
2023/02/17 03:22:43;;;;;;;53.83;31.80;;;6.60;99.90;;;;;;5042156;28;20240;-85
2023/02/17 03:25:10;;;;;;;52.70;29.48;;;6.90;84.30;;;;;;5042228;28;20239;-85
2023/02/17 03:27:37;;;;;;;60.17;32.90;;;7.10;94.30;;;;;;5041770;28;20214;-85
2023/02/17 03:30:04;;;;;;;55.85;31.45;;;6.80;4.30;;;;;;5042147;28;20232;-85
2023/02/17 03:32:31;;;;;;;49.45;30.75;;;7.30;99.90;;;;;;5044078;28;20320;-84
2023/02/17 03:34:58;;;;;;;49.95;31.15;;;7.30;24.20;;;;;;5048656;28;20228;-85
2023/02/17 03:37:26;;;;;;;58.22;30.63;;;7.00;1.00;;;;;;5049355;28;20273;-84
2023/02/17 03:39:53;;;;;;;60.90;32.45;;;;;;;;;;5056001;28;20268;-84
2023/02/17 03:42:20;;;;;;;54.45;29.77;;;7.10;1.00;;;;;;5054480;28;20320;-84
2023/02/17 03:44:47;;;;;;;53.03;31.52;;;;;;;;;;5051001;28;20291;-85
2023/02/17 03:47:14;;;;;;;58.60;32.80;;;6.80;99.90;;;;;;5048783;28;20694;-84
2023/02/17 03:49:41;;;;;;;53.40;31.48;;;7.00;99.90;;;;;;5042571;28;20304;-85
2023/02/17 03:52:08;;;;;;;53.67;31.20;;;6.90;99.90;;;;;;5042169;28;20730;-85
2023/02/17 03:54:36;;;;;;;51.80;30.88;;;6.80;99.90;;;;;;5040188;28;20237;-84
2023/02/17 03:57:02;;;;;;;56.53;32.45;;;7.20;43.40;;;;;;5042710;28;20205;-85
2023/02/17 03:59:30;;;;;;;51.55;30.52;;;7.10;99.90;;;;;;5048674;28;20214;-85
2023/02/17 04:01:56;;;;;;;54.90;33.88;;;6.70;99.90;;;;;;5054605;28;20259;-85
2023/02/17 04:04:23;;;;;;;61.35;33.70;;;6.70;99.90;;;;;;5051070;28;20209;-85
2023/02/17 04:06:50;;;;;;;53.53;33.67;;;7.00;99.90;;;;;;5045520;28;20231;-85
2023/02/17 04:09:17;;;;;;;54.90;31.92;;;6.90;99.90;;;;;;5045895;28;20272;-86
2023/02/17 04:11:45;;;;;;;56.15;32.10;;;7.30;99.90;;;;;;5050729;28;20293;-84
2023/02/17 04:14:12;;;;;;;58.80;32.05;;;6.90;99.90;;;;;;5059754;28;20215;-86
2023/02/17 04:16:39;;;;;;;57.03;32.70;;;7.00;99.90;;;;;;5059423;28;20193;-85
2023/02/17 04:19:06;;;;;;;54.42;33.95;;;7.30;99.90;;;;;;5060627;28;20220;-85
2023/02/17 04:21:33;;;;;;;58.28;34.20;;;7.40;99.90;;;;;;5060228;28;20289;-84
2023/02/17 04:24:00;;;;;;;63.53;33.28;;;6.60;99.90;;;;;;5059848;28;20268;-85
2023/02/17 04:26:27;;;;;;;56.08;31.65;;;7.10;73.40;;;;;;5059989;28;20235;-86
2023/02/17 04:28:56;;;;;;;58.00;31.42;;;6.70;99.90;;;;;;5057961;28;20212;-84
2023/02/17 04:31:24;;;;;;;57.60;32.03;;;6.80;99.90;;;;;;5055080;28;20289;-85
2023/02/17 04:33:51;;;;;;;63.60;31.40;;;7.20;99.90;;;;;;5051569;28;20205;-87
2023/02/17 04:36:18;;;;;;;55.83;34.42;;;6.70;99.90;;;;;;5048683;28;20197;-86
2023/02/17 04:38:45;;;;;;;56.42;32.50;;;;;;;;;;5046032;28;20233;-84
2023/02/17 04:41:12;;;;;;;60.47;31.33;;;7.00;99.90;;;;;;5046856;28;20229;-86
2023/02/17 04:43:39;;;;;;;57.50;32.78;;;;;;;;;;5046026;28;20694;-86
2023/02/17 04:46:07;;;;;;;54.75;31.63;;;7.30;99.90;;;;;;5045707;28;20266;-85
2023/02/17 04:48:34;;;;;;;69.43;33.38;;;7.40;99.90;;;;;;5044355;28;20284;-86
2023/02/17 04:51:01;;;;;;;61.05;32.60;;;;;;;;;;5046344;28;20235;-83
2023/02/17 04:53:28;;;;;;;56.78;31.45;;;7.30;99.90;;;;;;5039623;28;20234;-84
2023/02/17 04:55:55;;;;;;;54.53;31.88;;;6.30;99.90;;;;;;5040782;28;20269;-83
2023/02/17 04:58:22;;;;;;;56.13;33.35;;;;;;;;;;5044580;28;20268;-85
2023/02/17 05:00:50;;;;;;;52.40;30.48;;;7.40;99.90;;;;;;5051878;28;20185;-84
2023/02/17 05:03:19;;;;;;;57.05;33.38;;;7.40;99.90;;;;;;5059796;28;20216;-84
2023/02/17 05:05:46;;;;;;;52.95;30.08;;;7.20;99.90;;;;;;5059624;28;20252;-86
2023/02/17 05:08:12;;;;;;;57.63;31.30;;;7.00;99.90;;;;;;5055333;28;20268;-85
2023/02/17 05:10:39;;;;;;;58.15;32.97;;;7.00;99.90;;;;;;5047896;28;20293;-87
2023/02/17 05:13:06;;;;;;;58.58;32.97;;;6.70;99.90;;;;;;5054899;28;20217;-84
2023/02/17 05:15:33;;;;;;;56.80;31.98;;;7.00;99.90;;;;;;5055862;28;20203;-84
2023/02/17 05:18:00;;;;;;;62.47;33.20;;;7.20;99.90;;;;;;5053392;28;20212;-83
2023/02/17 05:20:28;;;;;;;62.15;34.90;;;6.80;99.90;;;;;;5053656;28;20292;-84
2023/02/17 05:22:55;;;;;;;63.70;34.00;;;;;;;;;;5045172;28;20260;-86
2023/02/17 05:25:22;;;;;;;68.80;33.88;;;7.30;99.90;;;;;;5044924;28;20483;-84
2023/02/17 05:27:49;;;;;;;51.65;33.50;;;6.90;99.90;;;;;;5047803;28;20209;-85
2023/02/17 05:30:16;;;;;;;58.63;34.20;;;7.20;99.90;;;;;;5045302;28;20236;-85
2023/02/17 05:32:43;;;;;;;49.97;29.98;;;7.30;99.90;;;;;;5044855;28;20287;-85
2023/02/17 05:35:10;;;;;;;64.15;33.13;;;6.10;99.90;;;;;;5046497;28;20212;-86
2023/02/17 05:37:38;;;;;;;60.92;33.75;;;7.40;99.90;;;;;;5054691;28;20215;-87
2023/02/17 05:40:06;;;;;;;62.20;32.83;;;7.20;99.90;;;;;;5057678;28;20196;-85
2023/02/17 05:42:33;;;;;;;54.67;31.83;;;;;;;;;;5055657;28;20296;-85
2023/02/17 05:45:00;;;;;;;59.00;31.42;;;;;;;;;;5052634;28;20255;-84
2023/02/17 05:47:27;;;;;;;47.78;29.23;;;6.90;99.90;;;;;;5044787;28;20595;-84
2023/02/17 05:49:54;;;;;;;49.58;30.27;;;;;;;;;;5043653;28;20672;-84
2023/02/17 05:52:21;;;;;;;54.70;31.13;;;6.90;99.90;;;;;;5045531;28;20225;-86
2023/02/17 05:54:49;;;;;;;56.65;30.95;;;7.20;99.90;;;;;;5044851;28;20248;-86
2023/02/17 05:57:16;;;;;;;59.22;30.75;;;7.50;99.90;;;;;;5049821;28;20270;-84
2023/02/17 05:59:43;;;;;;;49.97;30.42;;;7.30;99.90;;;;;;5051388;28;20216;-85
2023/02/17 06:02:10;;;;;;;53.20;30.17;;;7.20;99.90;;;;;;5045814;28;20288;-85
2023/02/17 06:04:37;;;;;;;48.78;31.55;;;;;;;;;;5045127;28;20271;-85
2023/02/17 06:07:04;;;;;;;58.25;32.78;;;7.60;99.90;;;;;;5045476;28;20217;-86
2023/02/17 06:09:31;;;;;;;51.17;28.67;;;7.00;99.90;;;;;;5043846;28;20293;-86
2023/02/17 06:11:59;;;;;;;50.08;28.67;;;7.30;99.90;;;;;;5043193;28;20231;-85
2023/02/17 06:14:25;;;;;;;52.22;29.67;;;7.30;99.90;;;;;;5042913;28;20648;-85
2023/02/17 06:16:54;;;;;;;44.40;27.17;;;7.60;99.90;;;;;;5043854;28;20196;-86
2023/02/17 06:19:24;;;;;;;47.42;29.65;;;7.60;99.90;;;;;;5043988;28;20235;-86
2023/02/17 06:21:50;;;;;;;55.55;29.90;;;7.40;99.90;;;;;;5044015;28;20236;-86
2023/02/17 06:24:17;;;;;;;46.75;29.15;;;7.10;99.90;;;;;;5043596;28;20208;-86
2023/02/17 06:26:44;;;;;;;55.72;31.08;;;7.30;99.90;;;;;;5043057;28;20220;-85
2023/02/17 06:29:12;;;;;;;53.75;29.63;;;7.20;99.90;;;;;;5043186;28;20237;-86
2023/02/17 06:31:39;;;;;;;47.58;29.20;;;;;;;;;;5042449;28;20290;-86
2023/02/17 06:37:27;;;;;;;47.03;27.67;;;7.80;99.90;;;;;;5012051;28;20189;-86
2023/02/17 06:39:54;;;;;;;42.55;27.75;;;;;;;;;;5045422;28;20231;-86
2023/02/17 06:42:21;;;;;;;45.72;28.05;;;;;;;;;;5042990;28;20234;-84
2023/02/17 06:44:49;;;;;;;45.72;25.60;;;7.40;99.90;;;;;;5041820;28;20258;-87
2023/02/17 06:47:16;;;;;;;44.78;27.70;;;7.20;99.90;;;;;;5043776;28;20311;-85
2023/02/17 06:49:43;;;;;;;46.15;25.75;;;;;;;;;;5045351;28;20643;-86
2023/02/17 06:52:10;;;;;;;47.50;28.52;;;7.80;99.90;;;;;;5044889;28;20226;-86
2023/02/17 06:54:37;;;;;;;39.40;25.67;;;;;;;;;;5046790;28;20205;-83
2023/02/17 06:57:04;;;;;;;43.38;25.98;;;7.60;99.90;;;;;;5047709;28;20265;-86
2023/02/17 06:59:32;;;;;;;37.00;24.37;;;7.80;99.90;;;;;;5046650;28;20293;-86
2023/02/17 07:02:00;;;;;;;40.15;23.52;;;7.40;99.90;;;;;;5047641;28;20480;-86
2023/02/17 07:04:27;;;;;;;36.03;24.17;;;8.10;99.90;;;;;;5042735;28;20290;-86
2023/02/17 07:06:54;;;;;;;39.15;23.67;;;7.80;99.90;;;;;;5045572;28;20990;-86
2023/02/17 07:09:21;;;;;;;34.65;22.38;;;;;;;;;;5045604;28;20205;-85
2023/02/17 07:11:49;;;;;;;35.83;23.67;;;8.10;99.90;;;;;;5050574;28;20289;-86
2023/02/17 07:14:16;;;;;;;37.47;23.33;;;8.30;99.90;;;;;;5052849;28;20482;-86
2023/02/17 07:16:43;;;;;;;30.30;21.27;;;8.00;99.90;;;;;;5050349;28;20452;-85
2023/02/17 07:19:11;;;;;;;40.53;25.33;;;8.00;99.90;;;;;;5046642;28;20452;-86
2023/02/17 07:21:38;;;;;;;34.60;23.88;;;8.20;99.90;;;;;;5045348;28;20254;-86
2023/02/17 07:24:06;;;;;;;37.57;23.83;;;;;;;;;;5044244;28;20299;-85
2023/02/17 07:26:35;;;;;;;33.13;21.70;;;7.70;99.90;;;;;;5044626;28;20480;-85
2023/02/17 07:29:02;;;;;;;30.00;20.20;;;8.40;99.90;;;;;;5044804;28;20751;-85
2023/02/17 07:31:29;;;;;;;38.07;23.20;;;7.80;99.90;;;;;;5045789;28;20472;-84
2023/02/17 07:34:01;;;;;;;38.93;23.10;;;8.00;99.90;;;;;;5042525;28;20509;-85
2023/02/17 07:36:29;;;;;;;36.60;23.15;;;;;;;;;;5046504;28;20496;-84
2023/02/17 07:38:56;;;;;;;31.73;21.63;;;8.20;99.90;;;;;;5052891;28;20268;-85
2023/02/17 07:41:27;;;;;;;33.87;21.17;;;8.10;99.90;;;;;;5048810;28;20537;-86
2023/02/17 07:43:55;;;;;;;33.87;19.63;;;8.50;99.90;;;;;;5047044;28;20751;-84
2023/02/17 07:46:22;;;;;;;29.20;19.70;;;8.60;99.90;;;;;;5047627;28;20455;-85
2023/02/17 07:48:49;;;;;;;33.97;20.87;;;8.10;99.90;;;;;;5047753;28;20439;-85
2023/02/17 07:51:19;;;;;;;27.20;20.60;;;8.40;40.30;;;;;;5047039;28;20498;-85
2023/02/17 07:53:48;;;;;;;30.50;19.60;;;8.20;99.90;;;;;;5052730;28;20497;-83
2023/02/17 07:56:16;;;;;;;27.97;18.83;;;8.80;95.80;;;;;;5053924;28;20444;-85
2023/02/17 07:58:44;;;;;;;23.20;18.47;;;8.10;99.90;;;;;;5050198;28;21005;-85
2023/02/17 08:01:14;;;;;;;31.53;18.93;;;8.90;99.90;;;;;;5050324;28;21005;-85
2023/02/17 08:03:41;;;;;;;28.73;19.07;;;;;;;;;;5049562;28;20535;-86
2023/02/17 08:06:09;;;;;;;31.63;20.63;;;8.20;99.90;;;;;;5046011;28;20480;-86
2023/02/17 08:14:07;;;;;;;25.80;18.23;;;8.30;1.00;;;;;;5044571;28;20409;-86
2023/02/17 08:16:34;;;;;;;24.67;18.50;;;;;;;;;;5044582;28;20423;-86
2023/02/17 08:19:01;;;;;;;25.33;19.27;;;;;;;;;;5044813;28;20476;-86
2023/02/17 08:21:28;;;;;;;27.70;18.83;;;8.60;88.40;;;;;;5045680;28;20453;-85
2023/02/17 08:23:55;;;;;;;27.03;18.57;;;8.60;59.40;;;;;;5056209;28;20538;-84
2023/02/17 08:26:24;;;;;;;23.83;18.90;;;8.60;1.00;;;;;;5054976;28;20535;-85
2023/02/17 08:28:51;;;;;;;25.97;19.23;;;8.60;63.80;;;;;;5039504;28;20531;-85
2023/02/17 08:31:20;;;;;;;24.47;18.30;;;8.80;1.00;;;;;;5038882;28;20468;-85
2023/02/17 08:33:47;;;;;;;24.20;18.10;;;;;;;;;;5040302;28;20477;-84
2023/02/17 08:36:14;;;;;;;24.90;16.80;;;8.50;95.40;;;;;;5042021;28;20477;-85
2023/02/17 08:38:43;;;;;;;25.53;18.60;;;;;;;;;;5042127;28;20512;-85
2023/02/17 08:41:14;;;;;;;28.40;21.17;;;8.70;1.00;;;;;;5077437;22;20529;-79
2023/02/17 08:43:43;;;;;;;31.13;20.80;;;8.40;99.90;;;;;;5044365;28;20488;-80
2023/02/17 08:46:12;;;;;;;26.10;17.57;;;8.70;18.20;;;;;;5044140;28;20447;-79
2023/02/17 08:48:39;;;;;;;40.03;25.70;;;8.80;99.90;;;;;;5046731;28;20486;-79
2023/02/17 08:51:07;;;;;;;24.00;18.17;;;9.10;99.90;;;;;;5049056;28;20511;-78
2023/02/17 08:53:34;;;;;;;29.93;20.77;;;8.70;74.10;;;;;;5041355;28;20494;-79
2023/02/17 08:56:01;;;;;;;27.53;19.17;;;8.40;99.90;;;;;;5041200;28;20501;-79
2023/02/17 08:58:28;;;;;;;27.47;18.23;;;;;;;;;;5039742;28;20430;-79
2023/02/17 09:00:56;;;;;;;31.33;19.43;;;8.80;99.90;;;;;;5037810;28;20417;-78
2023/02/17 09:03:23;;;;;;;31.60;21.30;;;8.60;99.90;;;;;;5036743;28;20884;-79
2023/02/17 09:05:53;;;;;;;26.83;19.23;;;8.50;99.90;;;;;;5039021;28;20434;-80
2023/02/17 09:08:19;;;;;;;33.07;21.37;;;8.40;99.90;;;;;;5041361;28;20766;-80
2023/02/17 09:10:47;;;;;;;30.73;18.90;;;;;;;;;;5044534;28;20425;-79
2023/02/17 09:13:14;;;;;;;29.97;20.00;;;9.20;99.90;;;;;;5039487;28;20474;-80
2023/02/17 09:15:40;;;;;;;30.75;19.55;;;8.50;99.90;;;;;;5041869;28;20430;-80
2023/02/17 09:18:08;;;;;;;25.93;18.93;;;9.00;99.90;;;;;;5040039;28;20293;-80
2023/02/17 09:20:36;;;;;;;27.57;19.87;;;8.80;99.90;;;;;;5042812;28;20422;-79
2023/02/17 09:23:04;;;;;;;27.30;20.50;;;8.70;99.90;;;;;;5040107;28;20435;-79
2023/02/17 09:25:30;;;;;;;27.50;18.97;;;8.70;99.90;;;;;;5040955;28;20539;-80
2023/02/17 09:27:57;;;;;;;28.10;18.23;;;8.90;99.90;;;;;;5040928;28;20459;-80
2023/02/17 09:30:24;;;;;;;26.13;18.97;;;9.20;99.90;;;;;;5047373;28;20513;-79
2023/02/17 09:32:51;;;;;;;29.63;20.17;;;8.50;99.90;;;;;;5046425;28;20437;-80
2023/02/17 09:35:28;;;;;;;27.90;18.23;;;;;;;;;;5039594;28;20510;-79
2023/02/17 09:37:55;;;;;;;33.00;21.03;;;;;;;;;;5038154;28;20468;-80
2023/02/17 09:40:28;;;;;;;26.90;20.47;;;9.20;99.90;;;;;;5037795;28;20414;-78
2023/02/17 09:42:54;;;;;;;29.20;20.17;;;8.60;99.90;;;;;;5038325;28;20448;-80
2023/02/17 09:45:26;;;;;;;28.87;21.40;;;9.10;99.90;;;;;;5038144;28;21061;-78
2023/02/17 09:47:57;;;;;;;31.20;20.60;;;8.10;99.90;;;;;;5038249;28;20452;-79
2023/02/17 09:50:29;;;;;;;27.10;19.73;;;8.90;99.90;;;;;;5038639;28;20433;-79
2023/02/17 09:53:01;;;;;;;29.60;20.87;;;8.60;99.90;;;;;;5038550;28;20450;-79
2023/02/17 09:55:32;;;;;;;30.20;22.00;;;8.70;99.90;;;;;;5038931;28;20524;-80
2023/02/17 09:58:04;;;;;;;29.05;21.25;;;9.20;99.90;;;;;;5040114;28;20402;-80
2023/02/17 10:00:35;;;;;;;31.20;21.43;;;8.90;99.90;;;;;;5038517;28;20198;-79
2023/02/17 10:03:09;;;;;;;29.80;21.27;;;8.90;99.90;;;;;;5036822;28;20534;-79
2023/02/17 10:05:42;;;;;;;31.60;20.93;;;9.30;99.90;;;;;;5036340;28;20404;-80
2023/02/17 10:08:15;;;;;;;34.03;22.07;;;9.30;99.90;;;;;;5036074;28;20471;-79
2023/02/17 10:10:48;;;;;;;30.47;21.70;;;9.20;99.90;;;;;;5043613;28;20523;-80
2023/02/17 10:13:17;;;;;;;35.63;21.27;;;9.30;99.90;;;;;;5052002;28;20463;-78
2023/02/17 10:15:50;;;;;;;29.57;21.73;;;8.90;99.90;;;;;;5055037;28;20471;-78
2023/02/17 10:18:25;;;;;;;33.23;21.40;;;8.50;99.90;;;;;;5037073;28;20435;-90
2023/02/17 10:20:59;;;;;;;33.20;20.77;;;8.90;99.90;;;;;;5036552;28;20415;-80
2023/02/17 10:23:29;;;;;;;35.53;22.33;;;8.60;99.90;;;;;;5036698;28;20481;-78
2023/02/17 10:26:14;;;;;;;32.43;22.97;;;8.90;99.90;;;;;;5035251;28;20458;-79
2023/02/17 10:28:50;;;;;;;26.40;20.50;;;9.00;99.90;;;;;;5036774;28;20442;-79
2023/02/17 10:31:29;;;;;;;32.87;21.07;;;9.30;99.90;;;;;;5036475;28;20443;-79
2023/02/17 10:34:05;;;;;;;33.03;22.90;;;9.00;99.90;;;;;;5038315;28;20441;-80
2023/02/17 10:36:43;;;;;;;32.70;22.70;;;9.00;99.90;;;;;;5035355;28;20441;-79
2023/02/17 10:39:14;;;;;;;34.47;23.47;;;8.80;99.90;;;;;;5038280;28;20408;-78
2023/02/17 10:41:45;;;;;;;38.03;26.00;;;8.80;99.90;;;;;;5039688;28;20539;-80
2023/02/17 10:44:16;;;;;;;33.23;25.17;;;9.50;99.90;;;;;;5041175;28;20406;-79
2023/02/17 10:46:47;;;;;;;35.30;24.60;;;9.20;99.90;;;;;;5040916;28;20435;-78
2023/02/17 10:49:21;;;;;;;32.87;23.27;;;9.10;99.90;;;;;;5039414;28;20493;-79
2023/02/17 10:51:49;;;;;;;35.73;24.50;;;9.30;99.90;;;;;;5038335;28;20435;-78
2023/02/17 10:54:24;;;;;;;38.87;26.40;;;8.80;99.90;;;;;;5039875;28;20951;-79
2023/02/17 10:56:54;;;;;;;42.07;27.50;;;9.50;99.90;;;;;;5039766;28;20411;-78
2023/02/17 10:59:26;;;;;;;39.17;25.17;;;9.50;99.90;;;;;;5038613;28;20436;-78
2023/02/17 11:01:58;;;;;;;34.80;24.00;;;9.10;99.90;;;;;;5038159;28;20465;-78
2023/02/17 11:04:25;;;;;;;31.90;23.03;;;9.70;99.90;;;;;;5038223;28;20438;-78
2023/02/17 11:06:54;;;;;;;33.37;23.27;;;9.60;99.90;;;;;;5035928;28;20467;-78
2023/02/17 11:09:27;;;;;;;37.27;24.57;;;9.30;99.90;;;;;;5036465;28;20419;-79
2023/02/17 11:12:00;;;;;;;31.57;21.90;;;9.40;99.90;;;;;;5037446;28;20499;-78
2023/02/17 11:14:28;;;;;;;33.40;22.70;;;9.50;99.90;;;;;;5038777;28;20527;-79
2023/02/17 11:16:59;;;;;;;34.17;22.17;;;9.40;99.90;;;;;;5036793;28;20877;-78
2023/02/17 11:19:28;;;;;;;29.97;21.13;;;9.50;99.90;;;;;;5034880;28;20465;-78
2023/02/17 11:21:58;;;;;;;30.60;21.37;;;9.20;99.90;;;;;;5033879;28;20508;-80
2023/02/17 11:24:26;;;;;;;26.10;18.97;;;9.30;99.90;;;;;;5033523;28;20426;-79
2023/02/17 11:26:58;;;;;;;26.47;18.90;;;9.60;99.90;;;;;;5034450;28;20427;-79
2023/02/17 11:29:25;;;;;;;25.47;20.23;;;9.50;99.90;;;;;;5034443;28;20437;-79
2023/02/17 11:31:58;;;;;;;29.37;20.83;;;9.70;99.90;;;;;;5034779;28;20982;-79
2023/02/17 11:34:27;;;;;;;29.13;20.57;;;9.60;99.90;;;;;;5035503;28;20448;-79
2023/02/17 11:37:01;;;;;;;25.20;17.30;;;9.80;99.90;;;;;;5033550;28;20433;-79
2023/02/17 11:39:29;;;;;;;22.43;18.63;;;9.50;99.90;;;;;;5034213;28;20478;-78
2023/02/17 11:41:56;;;;;;;24.13;17.10;;;10.00;99.90;;;;;;5036524;28;20541;-79
2023/02/17 11:44:24;;;;;;;20.70;17.00;;;9.90;99.90;;;;;;5034481;28;20929;-80
2023/02/17 11:46:59;;;;;;;22.47;15.83;;;9.80;99.90;;;;;;5034495;28;20450;-80
2023/02/17 11:50:01;;;;;;;81.47;50.97;;;10.10;99.90;;;;;;5034324;28;20403;-79
2023/02/17 11:52:48;;;;;;;24.10;16.17;;;10.30;99.90;;;;;;5036378;28;20489;-79
2023/02/17 11:55:21;;;;;;;23.50;16.23;;;9.70;99.90;;;;;;5047853;28;20442;-79
2023/02/17 11:58:03;;;;;;;31.70;19.00;;;10.30;99.90;;;;;;5043354;28;20432;-79
2023/02/17 12:00:39;;;;;;;18.53;14.53;;;10.30;99.90;;;;;;5040993;28;20426;-78
2023/02/17 12:03:37;;;;;;;18.33;14.10;;;10.20;99.90;;;;;;5038367;28;20496;-80
2023/02/17 12:06:12;;;;;;;20.97;14.27;;;10.30;17.30;;;;;;5044579;28;20457;-79
2023/02/17 12:08:52;;;;;;;19.57;14.60;;;10.70;99.90;;;;;;5042851;28;20527;-79
2023/02/17 12:11:26;;;;;;;17.67;13.77;;;10.50;96.70;;;;;;5040282;28;20482;-80
2023/02/17 12:14:09;;;;;;;20.07;14.40;;;10.30;99.90;;;;;;5040149;28;20874;-79
2023/02/17 12:16:45;;;;;;;20.60;14.90;;;10.60;79.50;;;;;;5038574;28;20836;-80
2023/02/17 12:19:27;;;;;;;22.23;12.83;;;10.20;99.90;;;;;;5038519;28;20426;-79
2023/02/17 12:22:02;;;;;;;15.43;11.70;;;10.90;38.80;;;;;;5040020;28;20439;-80
2023/02/17 12:24:50;;;;;;;17.57;11.40;;;10.20;21.40;;;;;;5037930;28;20428;-78
2023/02/17 12:27:28;;;;;;;15.50;11.83;;;10.60;52.30;;;;;;5037748;28;20436;-78
2023/02/17 12:30:20;;;;;;;17.80;12.03;;;11.10;1.00;;;;;;5037677;28;20434;-78
2023/02/17 12:32:58;;;;;;;12.03;10.40;;;11.00;1.00;;;;;;5041503;28;20871;-78
2023/02/17 12:35:30;;;;;;;14.13;11.23;;;11.00;1.00;;;;;;5043517;28;20489;-78
2023/02/17 12:38:00;;;;;;;11.40;9.40;;;11.10;1.00;;;;;;5045518;28;20436;-78
2023/02/17 12:40:38;;;;;;;12.60;10.37;;;10.90;1.00;;;;;;5044645;28;20965;-78
2023/02/17 12:43:13;;;;;;;11.60;9.77;;;10.90;1.00;;;;;;5040830;28;20453;-78
2023/02/17 12:45:44;;;;;;;11.07;9.67;;;11.10;1.00;;;;;;5039917;28;20432;-79
2023/02/17 12:48:18;;;;;;;18.13;11.70;;;11.40;1.00;;;;;;5037466;28;20518;-79
2023/02/17 12:50:52;;;;;;;10.40;8.97;;;11.10;1.00;;;;;;5037675;28;20501;-80
2023/02/17 12:53:26;;;;;;;10.47;9.00;;;11.10;1.00;;;;;;5037356;28;20481;-78
2023/02/17 12:55:58;;;;;;;13.73;9.80;;;11.10;1.00;;;;;;5037632;28;20425;-78
2023/02/17 12:58:28;;;;;;;10.30;8.33;;;11.00;1.00;;;;;;5037355;28;20407;-77
2023/02/17 13:01:01;;;;;;;11.70;9.33;;;11.80;1.00;;;;;;5035453;28;20942;-79
2023/02/17 13:03:29;;;;;;;10.87;9.63;;;11.40;1.00;;;;;;5037421;28;20438;-79
2023/02/17 13:06:02;;;;;;;10.77;8.37;;;11.40;99.90;;;;;;5037326;28;20531;-78
2023/02/17 13:08:36;;;;;;;9.97;8.10;;;11.40;99.90;;;;;;5036762;28;20454;-78
2023/02/17 13:11:06;;;;;;;9.27;7.67;;;11.70;1.00;;;;;;5037140;28;20437;-78